sensor_id;sensor_type;location;lat;lon;timestamp;P1;durP1;ratioP1;P2;durP2;ratioP2
35677;SDS011;21791;42.828;74.582;2023-02-14T00:00:38;13.32;;;6.13;;
35677;SDS011;21791;42.828;74.582;2023-02-14T00:03:04;19.30;;;7.90;;
35677;SDS011;21791;42.828;74.582;2023-02-14T00:05:31;16.75;;;7.28;;
35677;SDS011;21791;42.828;74.582;2023-02-14T00:07:57;15.57;;;7.10;;
35677;SDS011;21791;42.828;74.582;2023-02-14T00:10:24;16.75;;;6.95;;
35677;SDS011;21791;42.828;74.582;2023-02-14T00:12:51;14.70;;;6.57;;
35677;SDS011;21791;42.828;74.582;2023-02-14T00:15:17;13.18;;;6.40;;
35677;SDS011;21791;42.828;74.582;2023-02-14T00:17:51;11.48;;;5.00;;
35677;SDS011;21791;42.828;74.582;2023-02-14T00:20:20;8.70;;;4.63;;
35677;SDS011;21791;42.828;74.582;2023-02-14T00:22:47;9.20;;;3.95;;
35677;SDS011;21791;42.828;74.582;2023-02-14T00:25:14;11.25;;;4.20;;
35677;SDS011;21791;42.828;74.582;2023-02-14T00:27:41;9.45;;;4.00;;
35677;SDS011;21791;42.828;74.582;2023-02-14T00:30:08;11.98;;;4.57;;
35677;SDS011;21791;42.828;74.582;2023-02-14T00:32:37;11.73;;;4.80;;
35677;SDS011;21791;42.828;74.582;2023-02-14T00:35:05;9.05;;;4.53;;
35677;SDS011;21791;42.828;74.582;2023-02-14T00:37:33;13.82;;;5.60;;
35677;SDS011;21791;42.828;74.582;2023-02-14T00:40:00;14.88;;;5.90;;
35677;SDS011;21791;42.828;74.582;2023-02-14T00:42:27;20.10;;;6.10;;
35677;SDS011;21791;42.828;74.582;2023-02-14T00:44:53;22.35;;;9.32;;
35677;SDS011;21791;42.828;74.582;2023-02-14T00:47:20;15.82;;;6.68;;
35677;SDS011;21791;42.828;74.582;2023-02-14T00:49:46;19.60;;;7.72;;
35677;SDS011;21791;42.828;74.582;2023-02-14T00:52:13;13.50;;;6.38;;
35677;SDS011;21791;42.828;74.582;2023-02-14T00:54:40;14.40;;;5.95;;
35677;SDS011;21791;42.828;74.582;2023-02-14T00:57:06;10.65;;;5.30;;
35677;SDS011;21791;42.828;74.582;2023-02-14T00:59:33;11.20;;;5.15;;
35677;SDS011;21791;42.828;74.582;2023-02-14T01:01:59;9.52;;;5.20;;
35677;SDS011;21791;42.828;74.582;2023-02-14T01:04:26;9.90;;;4.13;;
35677;SDS011;21791;42.828;74.582;2023-02-14T01:06:52;8.20;;;4.10;;
35677;SDS011;21791;42.828;74.582;2023-02-14T01:09:19;12.27;;;4.80;;
35677;SDS011;21791;42.828;74.582;2023-02-14T01:11:45;8.52;;;4.60;;
35677;SDS011;21791;42.828;74.582;2023-02-14T01:14:13;6.90;;;3.95;;
35677;SDS011;21791;42.828;74.582;2023-02-14T01:16:39;8.27;;;3.92;;
35677;SDS011;21791;42.828;74.582;2023-02-14T01:19:06;8.43;;;3.97;;
35677;SDS011;21791;42.828;74.582;2023-02-14T01:21:34;6.93;;;3.83;;
35677;SDS011;21791;42.828;74.582;2023-02-14T01:24:03;7.20;;;3.47;;
35677;SDS011;21791;42.828;74.582;2023-02-14T01:26:31;5.53;;;2.95;;
35677;SDS011;21791;42.828;74.582;2023-02-14T01:28:58;7.07;;;3.35;;
35677;SDS011;21791;42.828;74.582;2023-02-14T01:31:25;6.20;;;3.28;;
35677;SDS011;21791;42.828;74.582;2023-02-14T01:33:56;5.28;;;2.83;;
35677;SDS011;21791;42.828;74.582;2023-02-14T01:36:30;5.85;;;2.88;;
35677;SDS011;21791;42.828;74.582;2023-02-14T01:39:05;7.93;;;2.88;;
35677;SDS011;21791;42.828;74.582;2023-02-14T01:41:41;5.97;;;3.33;;
35677;SDS011;21791;42.828;74.582;2023-02-14T01:46:44;5.68;;;2.83;;
35677;SDS011;21791;42.828;74.582;2023-02-14T01:49:15;11.25;;;3.83;;
35677;SDS011;21791;42.828;74.582;2023-02-14T01:51:47;6.72;;;3.45;;
35677;SDS011;21791;42.828;74.582;2023-02-14T01:54:17;13.13;;;4.60;;
35677;SDS011;21791;42.828;74.582;2023-02-14T01:56:48;10.57;;;5.15;;
35677;SDS011;21791;42.828;74.582;2023-02-14T01:59:20;8.57;;;4.45;;
35677;SDS011;21791;42.828;74.582;2023-02-14T02:01:50;11.43;;;5.13;;
35677;SDS011;21791;42.828;74.582;2023-02-14T02:04:18;11.55;;;5.43;;
35677;SDS011;21791;42.828;74.582;2023-02-14T02:06:52;14.30;;;5.97;;
35677;SDS011;21791;42.828;74.582;2023-02-14T02:12:09;11.48;;;5.90;;
35677;SDS011;21791;42.828;74.582;2023-02-14T02:14:36;16.45;;;6.38;;
35677;SDS011;21791;42.828;74.582;2023-02-14T02:17:23;14.05;;;6.43;;
35677;SDS011;21791;42.828;74.582;2023-02-14T02:51:59;40.88;;;16.80;;
35677;SDS011;21791;42.828;74.582;2023-02-14T02:54:56;35.30;;;17.63;;
35677;SDS011;21791;42.828;74.582;2023-02-14T02:57:33;36.60;;;16.08;;
35677;SDS011;21791;42.828;74.582;2023-02-14T03:00:04;29.48;;;14.82;;
35677;SDS011;21791;42.828;74.582;2023-02-14T03:02:33;24.90;;;14.10;;
35677;SDS011;21791;42.828;74.582;2023-02-14T03:05:39;26.83;;;15.20;;
35677;SDS011;21791;42.828;74.582;2023-02-14T03:08:07;37.03;;;15.60;;
35677;SDS011;21791;42.828;74.582;2023-02-14T03:10:34;36.05;;;17.95;;
35677;SDS011;21791;42.828;74.582;2023-02-14T03:13:18;37.50;;;18.20;;
35677;SDS011;21791;42.828;74.582;2023-02-14T03:21:51;27.33;;;13.65;;
35677;SDS011;21791;42.828;74.582;2023-02-14T03:29:46;22.27;;;10.23;;
35677;SDS011;21791;42.828;74.582;2023-02-14T03:32:20;15.85;;;8.77;;
35677;SDS011;21791;42.828;74.582;2023-02-14T03:34:53;15.50;;;7.68;;
35677;SDS011;21791;42.828;74.582;2023-02-14T03:37:52;11.15;;;6.47;;
35677;SDS011;21791;42.828;74.582;2023-02-14T03:40:47;11.25;;;7.57;;
35677;SDS011;21791;42.828;74.582;2023-02-14T03:43:32;15.20;;;9.15;;
35677;SDS011;21791;42.828;74.582;2023-02-14T03:46:08;21.90;;;10.57;;
35677;SDS011;21791;42.828;74.582;2023-02-14T03:48:38;24.70;;;9.13;;
35677;SDS011;21791;42.828;74.582;2023-02-14T03:51:07;14.73;;;8.23;;
35677;SDS011;21791;42.828;74.582;2023-02-14T03:53:37;12.70;;;7.90;;
35677;SDS011;21791;42.828;74.582;2023-02-14T03:58:52;10.70;;;6.80;;
35677;SDS011;21791;42.828;74.582;2023-02-14T04:01:23;11.27;;;6.38;;
35677;SDS011;21791;42.828;74.582;2023-02-14T04:03:55;16.13;;;6.22;;
35677;SDS011;21791;42.828;74.582;2023-02-14T04:06:24;17.25;;;6.63;;
35677;SDS011;21791;42.828;74.582;2023-02-14T04:08:50;16.25;;;7.05;;
35677;SDS011;21791;42.828;74.582;2023-02-14T04:11:17;16.52;;;7.35;;
35677;SDS011;21791;42.828;74.582;2023-02-14T04:13:43;13.77;;;7.30;;
35677;SDS011;21791;42.828;74.582;2023-02-14T04:16:10;15.35;;;7.25;;
35677;SDS011;21791;42.828;74.582;2023-02-14T04:18:36;12.73;;;6.70;;
35677;SDS011;21791;42.828;74.582;2023-02-14T04:21:21;16.40;;;6.72;;
35677;SDS011;21791;42.828;74.582;2023-02-14T04:23:47;15.82;;;6.35;;
35677;SDS011;21791;42.828;74.582;2023-02-14T04:26:14;9.57;;;5.60;;
35677;SDS011;21791;42.828;74.582;2023-02-14T04:28:40;11.23;;;5.72;;
35677;SDS011;21791;42.828;74.582;2023-02-14T04:31:07;16.35;;;5.95;;
35677;SDS011;21791;42.828;74.582;2023-02-14T04:33:35;10.27;;;5.82;;
35677;SDS011;21791;42.828;74.582;2023-02-14T04:36:03;20.08;;;6.97;;
35677;SDS011;21791;42.828;74.582;2023-02-14T04:38:30;13.05;;;6.38;;
35677;SDS011;21791;42.828;74.582;2023-02-14T04:40:57;26.88;;;8.85;;
35677;SDS011;21791;42.828;74.582;2023-02-14T04:43:24;21.80;;;8.25;;
35677;SDS011;21791;42.828;74.582;2023-02-14T04:45:50;24.45;;;9.05;;
35677;SDS011;21791;42.828;74.582;2023-02-14T04:48:17;18.42;;;9.00;;
35677;SDS011;21791;42.828;74.582;2023-02-14T04:50:43;25.73;;;12.25;;
35677;SDS011;21791;42.828;74.582;2023-02-14T04:53:15;43.60;;;14.13;;
35677;SDS011;21791;42.828;74.582;2023-02-14T04:55:44;35.63;;;14.90;;
35677;SDS011;21791;42.828;74.582;2023-02-14T04:58:11;40.13;;;17.23;;
35677;SDS011;21791;42.828;74.582;2023-02-14T05:00:37;45.85;;;17.05;;
35677;SDS011;21791;42.828;74.582;2023-02-14T05:03:04;40.70;;;16.55;;
35677;SDS011;21791;42.828;74.582;2023-02-14T05:05:30;34.78;;;15.85;;
35677;SDS011;21791;42.828;74.582;2023-02-14T05:07:57;37.10;;;14.07;;
35677;SDS011;21791;42.828;74.582;2023-02-14T05:10:24;33.25;;;15.10;;
35677;SDS011;21791;42.828;74.582;2023-02-14T05:12:50;32.08;;;15.60;;
35677;SDS011;21791;42.828;74.582;2023-02-14T05:15:17;30.25;;;15.10;;
35677;SDS011;21791;42.828;74.582;2023-02-14T05:17:43;37.05;;;14.07;;
35677;SDS011;21791;42.828;74.582;2023-02-14T05:20:10;32.47;;;15.88;;
35677;SDS011;21791;42.828;74.582;2023-02-14T05:22:36;33.75;;;17.00;;
35677;SDS011;21791;42.828;74.582;2023-02-14T05:25:03;39.35;;;20.27;;
35677;SDS011;21791;42.828;74.582;2023-02-14T05:27:29;43.67;;;22.77;;
35677;SDS011;21791;42.828;74.582;2023-02-14T05:29:59;71.90;;;38.72;;
35677;SDS011;21791;42.828;74.582;2023-02-14T05:32:25;83.40;;;44.95;;
35677;SDS011;21791;42.828;74.582;2023-02-14T05:34:52;101.88;;;53.60;;
35677;SDS011;21791;42.828;74.582;2023-02-14T05:37:18;92.05;;;54.70;;
35677;SDS011;21791;42.828;74.582;2023-02-14T05:39:45;83.68;;;44.25;;
35677;SDS011;21791;42.828;74.582;2023-02-14T05:42:11;67.07;;;35.42;;
35677;SDS011;21791;42.828;74.582;2023-02-14T05:44:38;64.75;;;34.55;;
35677;SDS011;21791;42.828;74.582;2023-02-14T05:47:04;68.00;;;35.85;;
35677;SDS011;21791;42.828;74.582;2023-02-14T05:49:31;65.22;;;37.63;;
35677;SDS011;21791;42.828;74.582;2023-02-14T05:51:59;56.85;;;33.22;;
35677;SDS011;21791;42.828;74.582;2023-02-14T05:54:25;59.72;;;32.67;;
35677;SDS011;21791;42.828;74.582;2023-02-14T05:56:52;70.93;;;33.70;;
35677;SDS011;21791;42.828;74.582;2023-02-14T05:59:22;64.28;;;33.13;;
35677;SDS011;21791;42.828;74.582;2023-02-14T06:01:48;61.10;;;32.42;;
35677;SDS011;21791;42.828;74.582;2023-02-14T06:04:15;62.17;;;32.35;;
35677;SDS011;21791;42.828;74.582;2023-02-14T06:06:41;49.83;;;30.08;;
35677;SDS011;21791;42.828;74.582;2023-02-14T06:09:08;29.75;;;17.40;;
35677;SDS011;21791;42.828;74.582;2023-02-14T06:11:35;9.60;;;6.15;;
35677;SDS011;21791;42.828;74.582;2023-02-14T06:14:01;13.73;;;8.25;;
35677;SDS011;21791;42.828;74.582;2023-02-14T06:16:28;11.32;;;5.05;;
35677;SDS011;21791;42.828;74.582;2023-02-14T06:18:54;11.65;;;5.30;;
35677;SDS011;21791;42.828;74.582;2023-02-14T06:21:21;10.10;;;5.78;;
35677;SDS011;21791;42.828;74.582;2023-02-14T06:23:47;8.45;;;4.85;;
35677;SDS011;21791;42.828;74.582;2023-02-14T06:26:14;11.05;;;4.95;;
35677;SDS011;21791;42.828;74.582;2023-02-14T06:28:40;17.55;;;6.45;;
35677;SDS011;21791;42.828;74.582;2023-02-14T06:31:07;10.07;;;5.68;;
35677;SDS011;21791;42.828;74.582;2023-02-14T06:33:33;13.32;;;6.35;;
35677;SDS011;21791;42.828;74.582;2023-02-14T06:35:59;14.23;;;5.35;;
35677;SDS011;21791;42.828;74.582;2023-02-14T06:38:26;7.65;;;5.40;;
35677;SDS011;21791;42.828;74.582;2023-02-14T06:40:52;11.65;;;6.13;;
35677;SDS011;21791;42.828;74.582;2023-02-14T06:43:19;12.18;;;6.43;;
35677;SDS011;21791;42.828;74.582;2023-02-14T06:45:46;12.02;;;6.70;;
35677;SDS011;21791;42.828;74.582;2023-02-14T06:48:12;10.85;;;6.22;;
35677;SDS011;21791;42.828;74.582;2023-02-14T06:50:39;13.02;;;6.30;;
35677;SDS011;21791;42.828;74.582;2023-02-14T06:53:05;9.25;;;5.53;;
35677;SDS011;21791;42.828;74.582;2023-02-14T06:55:32;11.23;;;5.35;;
35677;SDS011;21791;42.828;74.582;2023-02-14T06:57:59;10.40;;;5.93;;
35677;SDS011;21791;42.828;74.582;2023-02-14T07:00:25;12.55;;;5.90;;
35677;SDS011;21791;42.828;74.582;2023-02-14T07:02:52;12.60;;;5.80;;
35677;SDS011;21791;42.828;74.582;2023-02-14T07:05:18;9.80;;;5.43;;
35677;SDS011;21791;42.828;74.582;2023-02-14T07:07:45;11.68;;;6.07;;
35677;SDS011;21791;42.828;74.582;2023-02-14T07:10:11;9.63;;;5.38;;
35677;SDS011;21791;42.828;74.582;2023-02-14T07:12:38;7.93;;;5.03;;
35677;SDS011;21791;42.828;74.582;2023-02-14T07:15:06;9.15;;;5.13;;
35677;SDS011;21791;42.828;74.582;2023-02-14T07:17:33;10.32;;;5.07;;
35677;SDS011;21791;42.828;74.582;2023-02-14T07:19:59;10.32;;;5.65;;
35677;SDS011;21791;42.828;74.582;2023-02-14T07:22:26;10.73;;;5.43;;
35677;SDS011;21791;42.828;74.582;2023-02-14T07:24:53;15.65;;;6.50;;
35677;SDS011;21791;42.828;74.582;2023-02-14T07:27:19;13.00;;;6.50;;
35677;SDS011;21791;42.828;74.582;2023-02-14T07:29:46;17.13;;;6.60;;
35677;SDS011;21791;42.828;74.582;2023-02-14T07:32:12;15.90;;;5.93;;
35677;SDS011;21791;42.828;74.582;2023-02-14T07:34:39;11.20;;;5.03;;
35677;SDS011;21791;42.828;74.582;2023-02-14T07:37:05;13.52;;;5.25;;
35677;SDS011;21791;42.828;74.582;2023-02-14T07:39:32;11.77;;;5.05;;
35677;SDS011;21791;42.828;74.582;2023-02-14T07:41:59;8.27;;;3.63;;
35677;SDS011;21791;42.828;74.582;2023-02-14T07:44:25;9.90;;;4.78;;
35677;SDS011;21791;42.828;74.582;2023-02-14T07:46:52;10.88;;;4.38;;
35677;SDS011;21791;42.828;74.582;2023-02-14T07:49:19;6.78;;;4.20;;
35677;SDS011;21791;42.828;74.582;2023-02-14T07:51:45;6.30;;;3.90;;
35677;SDS011;21791;42.828;74.582;2023-02-14T07:54:12;6.55;;;3.70;;
35677;SDS011;21791;42.828;74.582;2023-02-14T07:56:39;7.05;;;4.00;;
35677;SDS011;21791;42.828;74.582;2023-02-14T07:59:05;9.25;;;4.15;;
35677;SDS011;21791;42.828;74.582;2023-02-14T08:01:31;10.55;;;4.20;;
35677;SDS011;21791;42.828;74.582;2023-02-14T08:03:58;7.45;;;3.90;;
35677;SDS011;21791;42.828;74.582;2023-02-14T08:06:24;10.48;;;4.50;;
35677;SDS011;21791;42.828;74.582;2023-02-14T08:08:52;8.95;;;4.95;;
35677;SDS011;21791;42.828;74.582;2023-02-14T08:11:19;8.77;;;3.95;;
35677;SDS011;21791;42.828;74.582;2023-02-14T08:14:03;10.52;;;5.68;;
35677;SDS011;21791;42.828;74.582;2023-02-14T08:16:30;10.10;;;4.80;;
35677;SDS011;21791;42.828;74.582;2023-02-14T08:18:59;9.90;;;4.57;;
35677;SDS011;21791;42.828;74.582;2023-02-14T08:21:26;9.90;;;4.97;;
35677;SDS011;21791;42.828;74.582;2023-02-14T08:23:52;8.60;;;4.97;;
35677;SDS011;21791;42.828;74.582;2023-02-14T08:26:19;10.52;;;5.25;;
35677;SDS011;21791;42.828;74.582;2023-02-14T08:28:46;9.60;;;5.15;;
35677;SDS011;21791;42.828;74.582;2023-02-14T08:31:22;8.10;;;4.80;;
35677;SDS011;21791;42.828;74.582;2023-02-14T08:33:51;8.38;;;4.55;;
35677;SDS011;21791;42.828;74.582;2023-02-14T08:36:17;12.68;;;4.82;;
35677;SDS011;21791;42.828;74.582;2023-02-14T08:38:44;12.00;;;5.07;;
35677;SDS011;21791;42.828;74.582;2023-02-14T08:41:14;14.13;;;4.75;;
35677;SDS011;21791;42.828;74.582;2023-02-14T08:43:43;10.93;;;4.57;;
35677;SDS011;21791;42.828;74.582;2023-02-14T08:46:10;8.93;;;4.43;;
35677;SDS011;21791;42.828;74.582;2023-02-14T08:48:37;9.10;;;4.03;;
35677;SDS011;21791;42.828;74.582;2023-02-14T08:51:05;10.90;;;4.38;;
35677;SDS011;21791;42.828;74.582;2023-02-14T08:53:37;8.55;;;3.65;;
35677;SDS011;21791;42.828;74.582;2023-02-14T08:56:05;11.23;;;4.70;;
35677;SDS011;21791;42.828;74.582;2023-02-14T08:58:36;9.15;;;4.53;;
35677;SDS011;21791;42.828;74.582;2023-02-14T09:01:07;10.68;;;4.55;;
35677;SDS011;21791;42.828;74.582;2023-02-14T09:03:35;8.25;;;4.10;;
35677;SDS011;21791;42.828;74.582;2023-02-14T09:06:03;12.73;;;4.70;;
35677;SDS011;21791;42.828;74.582;2023-02-14T09:08:30;9.02;;;4.95;;
35677;SDS011;21791;42.828;74.582;2023-02-14T09:11:05;9.88;;;4.45;;
35677;SDS011;21791;42.828;74.582;2023-02-14T09:13:36;11.27;;;4.60;;
35677;SDS011;21791;42.828;74.582;2023-02-14T09:16:05;11.07;;;4.90;;
35677;SDS011;21791;42.828;74.582;2023-02-14T09:18:34;8.90;;;4.60;;
35677;SDS011;21791;42.828;74.582;2023-02-14T09:21:00;9.70;;;4.88;;
35677;SDS011;21791;42.828;74.582;2023-02-14T09:23:31;8.45;;;4.03;;
35677;SDS011;21791;42.828;74.582;2023-02-14T09:26:01;8.82;;;4.25;;
35677;SDS011;21791;42.828;74.582;2023-02-14T09:28:32;8.10;;;4.22;;
35677;SDS011;21791;42.828;74.582;2023-02-14T09:31:06;9.13;;;4.35;;
35677;SDS011;21791;42.828;74.582;2023-02-14T09:33:38;8.52;;;4.32;;
35677;SDS011;21791;42.828;74.582;2023-02-14T09:36:24;10.50;;;4.72;;
35677;SDS011;21791;42.828;74.582;2023-02-14T09:38:50;14.73;;;5.13;;
35677;SDS011;21791;42.828;74.582;2023-02-14T09:43:50;9.93;;;4.40;;
35677;SDS011;21791;42.828;74.582;2023-02-14T09:46:26;10.40;;;4.28;;
35677;SDS011;21791;42.828;74.582;2023-02-14T09:48:54;13.23;;;4.25;;
35677;SDS011;21791;42.828;74.582;2023-02-14T09:51:23;9.57;;;3.70;;
35677;SDS011;21791;42.828;74.582;2023-02-14T09:54:01;8.38;;;3.83;;
35677;SDS011;21791;42.828;74.582;2023-02-14T09:59:36;11.38;;;4.32;;
35677;SDS011;21791;42.828;74.582;2023-02-14T10:02:17;9.50;;;3.83;;
35677;SDS011;21791;42.828;74.582;2023-02-14T10:11:03;9.88;;;4.55;;
35677;SDS011;21791;42.828;74.582;2023-02-14T10:16:11;10.70;;;5.07;;
35677;SDS011;21791;42.828;74.582;2023-02-14T10:18:59;17.27;;;5.57;;
35677;SDS011;21791;42.828;74.582;2023-02-14T10:21:29;9.05;;;4.93;;
35677;SDS011;21791;42.828;74.582;2023-02-14T10:24:05;16.20;;;5.68;;
35677;SDS011;21791;42.828;74.582;2023-02-14T10:26:52;10.90;;;5.03;;
35677;SDS011;21791;42.828;74.582;2023-02-14T10:29:23;11.18;;;4.93;;
35677;SDS011;21791;42.828;74.582;2023-02-14T10:54:19;9.45;;;5.18;;
35677;SDS011;21791;42.828;74.582;2023-02-14T10:57:00;17.90;;;6.60;;
35677;SDS011;21791;42.828;74.582;2023-02-14T10:59:34;13.38;;;6.13;;
35677;SDS011;21791;42.828;74.582;2023-02-14T11:02:13;10.80;;;5.85;;
35677;SDS011;21791;42.828;74.582;2023-02-14T11:04:45;11.85;;;6.40;;
35677;SDS011;21791;42.828;74.582;2023-02-14T11:07:17;11.55;;;5.90;;
35677;SDS011;21791;42.828;74.582;2023-02-14T11:09:46;10.27;;;6.07;;
35677;SDS011;21791;42.828;74.582;2023-02-14T11:12:15;11.02;;;5.82;;
35677;SDS011;21791;42.828;74.582;2023-02-14T11:18:57;9.10;;;5.97;;
35677;SDS011;21791;42.828;74.582;2023-02-14T11:20:58;15.45;;;5.72;;
35677;SDS011;21791;42.828;74.582;2023-02-14T11:23:30;15.80;;;6.75;;
35677;SDS011;21791;42.828;74.582;2023-02-14T11:26:09;13.77;;;6.60;;
35677;SDS011;21791;42.828;74.582;2023-02-14T11:28:48;14.30;;;6.53;;
35677;SDS011;21791;42.828;74.582;2023-02-14T11:31:27;18.65;;;7.55;;
35677;SDS011;21791;42.828;74.582;2023-02-14T11:34:00;16.70;;;6.97;;
35677;SDS011;21791;42.828;74.582;2023-02-14T11:36:30;20.50;;;6.55;;
35677;SDS011;21791;42.828;74.582;2023-02-14T11:41:51;17.27;;;7.47;;
35677;SDS011;21791;42.828;74.582;2023-02-14T11:44:21;27.58;;;8.50;;
35677;SDS011;21791;42.828;74.582;2023-02-14T11:46:51;22.98;;;7.65;;
35677;SDS011;21791;42.828;74.582;2023-02-14T11:49:23;24.52;;;8.25;;
35677;SDS011;21791;42.828;74.582;2023-02-14T11:51:55;21.77;;;8.50;;
35677;SDS011;21791;42.828;74.582;2023-02-14T11:54:28;28.85;;;8.77;;
35677;SDS011;21791;42.828;74.582;2023-02-14T11:56:59;48.95;;;25.77;;
35677;SDS011;21791;42.828;74.582;2023-02-14T11:59:43;47.97;;;27.98;;
35677;SDS011;21791;42.828;74.582;2023-02-14T12:04:51;56.47;;;32.25;;
35677;SDS011;21791;42.828;74.582;2023-02-14T12:07:30;58.58;;;34.38;;
35677;SDS011;21791;42.828;74.582;2023-02-14T12:12:58;67.55;;;40.13;;
35677;SDS011;21791;42.828;74.582;2023-02-14T12:21:09;59.28;;;35.67;;
35677;SDS011;21791;42.828;74.582;2023-02-14T12:24:21;65.75;;;36.53;;
35677;SDS011;21791;42.828;74.582;2023-02-14T12:26:56;62.47;;;35.90;;
35677;SDS011;21791;42.828;74.582;2023-02-14T12:32:01;58.10;;;35.38;;
35677;SDS011;21791;42.828;74.582;2023-02-14T12:34:38;64.43;;;37.20;;
35677;SDS011;21791;42.828;74.582;2023-02-14T12:37:10;62.00;;;36.83;;
35677;SDS011;21791;42.828;74.582;2023-02-14T12:48:23;94.22;;;38.50;;
35677;SDS011;21791;42.828;74.582;2023-02-14T12:59:27;80.82;;;42.80;;
35677;SDS011;21791;42.828;74.582;2023-02-14T13:04:47;87.15;;;43.05;;
35677;SDS011;21791;42.828;74.582;2023-02-14T13:10:24;77.00;;;39.92;;
35677;SDS011;21791;42.828;74.582;2023-02-14T13:13:15;78.53;;;41.63;;
35677;SDS011;21791;42.828;74.582;2023-02-14T13:21:10;80.38;;;34.40;;
35677;SDS011;21791;42.828;74.582;2023-02-14T13:23:45;41.13;;;19.98;;
35677;SDS011;21791;42.828;74.582;2023-02-14T13:28:55;34.75;;;16.90;;
35677;SDS011;21791;42.828;74.582;2023-02-14T13:31:28;38.38;;;18.10;;
35677;SDS011;21791;42.828;74.582;2023-02-14T13:34:04;36.55;;;17.77;;
35677;SDS011;21791;42.828;74.582;2023-02-14T13:36:44;34.67;;;15.82;;
35677;SDS011;21791;42.828;74.582;2023-02-14T13:39:23;30.88;;;15.45;;
35677;SDS011;21791;42.828;74.582;2023-02-14T13:41:56;24.40;;;15.10;;
35677;SDS011;21791;42.828;74.582;2023-02-14T13:47:07;40.58;;;16.15;;
35677;SDS011;21791;42.828;74.582;2023-02-14T13:55:13;47.80;;;18.20;;
35677;SDS011;21791;42.828;74.582;2023-02-14T13:57:58;46.60;;;18.45;;
35677;SDS011;21791;42.828;74.582;2023-02-14T14:00:51;40.13;;;17.13;;
35677;SDS011;21791;42.828;74.582;2023-02-14T14:05:57;35.70;;;17.70;;
35677;SDS011;21791;42.828;74.582;2023-02-14T14:08:44;37.72;;;19.17;;
35677;SDS011;21791;42.828;74.582;2023-02-14T14:13:55;39.90;;;21.58;;
35677;SDS011;21791;42.828;74.582;2023-02-14T14:18:57;42.55;;;25.95;;
35677;SDS011;21791;42.828;74.582;2023-02-14T14:21:33;51.17;;;27.10;;
35677;SDS011;21791;42.828;74.582;2023-02-14T14:26:46;45.35;;;24.52;;
35677;SDS011;21791;42.828;74.582;2023-02-14T14:29:20;45.72;;;21.73;;
35677;SDS011;21791;42.828;74.582;2023-02-14T14:31:53;43.55;;;24.30;;
35677;SDS011;21791;42.828;74.582;2023-02-14T14:34:21;53.85;;;27.55;;
35677;SDS011;21791;42.828;74.582;2023-02-14T14:39:41;50.63;;;27.65;;
35677;SDS011;21791;42.828;74.582;2023-02-14T14:42:14;51.65;;;27.45;;
35677;SDS011;21791;42.828;74.582;2023-02-14T14:44:46;53.97;;;29.42;;
35677;SDS011;21791;42.828;74.582;2023-02-14T14:47:19;62.78;;;30.92;;
35677;SDS011;21791;42.828;74.582;2023-02-14T14:50:03;67.97;;;34.95;;
35677;SDS011;21791;42.828;74.582;2023-02-14T14:52:37;75.90;;;34.75;;
35677;SDS011;21791;42.828;74.582;2023-02-14T14:55:13;83.57;;;42.33;;
35677;SDS011;21791;42.828;74.582;2023-02-14T14:57:56;62.95;;;34.50;;
35677;SDS011;21791;42.828;74.582;2023-02-14T15:00:33;65.18;;;33.35;;
35677;SDS011;21791;42.828;74.582;2023-02-14T15:16:16;38.60;;;21.73;;
35677;SDS011;21791;42.828;74.582;2023-02-14T15:18:44;40.97;;;22.75;;
35677;SDS011;21791;42.828;74.582;2023-02-14T15:21:11;45.80;;;23.50;;
35677;SDS011;21791;42.828;74.582;2023-02-14T15:23:39;46.15;;;22.50;;
35677;SDS011;21791;42.828;74.582;2023-02-14T15:26:26;46.60;;;24.23;;
35677;SDS011;21791;42.828;74.582;2023-02-14T15:28:59;40.80;;;21.67;;
35677;SDS011;21791;42.828;74.582;2023-02-14T15:31:31;38.15;;;19.65;;
35677;SDS011;21791;42.828;74.582;2023-02-14T15:34:03;31.55;;;17.10;;
35677;SDS011;21791;42.828;74.582;2023-02-14T15:36:31;40.67;;;18.33;;
35677;SDS011;21791;42.828;74.582;2023-02-14T15:39:05;31.13;;;17.58;;
35677;SDS011;21791;42.828;74.582;2023-02-14T15:41:34;36.53;;;15.95;;
35677;SDS011;21791;42.828;74.582;2023-02-14T15:44:02;26.42;;;12.27;;
35677;SDS011;21791;42.828;74.582;2023-02-14T15:46:35;25.42;;;13.75;;
35677;SDS011;21791;42.828;74.582;2023-02-14T15:49:05;28.70;;;11.80;;
35677;SDS011;21791;42.828;74.582;2023-02-14T15:51:36;27.27;;;12.27;;
35677;SDS011;21791;42.828;74.582;2023-02-14T15:54:20;27.67;;;11.63;;
35677;SDS011;21791;42.828;74.582;2023-02-14T15:56:53;22.10;;;10.60;;
35677;SDS011;21791;42.828;74.582;2023-02-14T15:59:24;19.45;;;10.60;;
35677;SDS011;21791;42.828;74.582;2023-02-14T16:02:19;14.65;;;8.80;;
35677;SDS011;21791;42.828;74.582;2023-02-14T16:04:51;20.05;;;10.68;;
35677;SDS011;21791;42.828;74.582;2023-02-14T16:07:27;20.20;;;10.40;;
35677;SDS011;21791;42.828;74.582;2023-02-14T16:13:34;18.92;;;9.68;;
35677;SDS011;21791;42.828;74.582;2023-02-14T16:15:38;14.57;;;8.45;;
35677;SDS011;21791;42.828;74.582;2023-02-14T16:18:41;14.40;;;8.10;;
35677;SDS011;21791;42.828;74.582;2023-02-14T16:21:15;15.68;;;8.45;;
35677;SDS011;21791;42.828;74.582;2023-02-14T16:26:41;20.02;;;10.15;;
35677;SDS011;21791;42.828;74.582;2023-02-14T16:29:09;23.67;;;11.73;;
35677;SDS011;21791;42.828;74.582;2023-02-14T16:31:39;24.90;;;11.77;;
35677;SDS011;21791;42.828;74.582;2023-02-14T16:34:12;24.88;;;12.30;;
35677;SDS011;21791;42.828;74.582;2023-02-14T16:36:40;20.48;;;11.60;;
35677;SDS011;21791;42.828;74.582;2023-02-14T16:39:14;22.00;;;11.23;;
35677;SDS011;21791;42.828;74.582;2023-02-14T16:41:43;17.90;;;9.57;;
35677;SDS011;21791;42.828;74.582;2023-02-14T16:44:12;11.35;;;7.15;;
35677;SDS011;21791;42.828;74.582;2023-02-14T16:46:40;11.25;;;6.82;;
35677;SDS011;21791;42.828;74.582;2023-02-14T16:49:08;12.23;;;5.90;;
35677;SDS011;21791;42.828;74.582;2023-02-14T16:51:34;11.60;;;6.72;;
35677;SDS011;21791;42.828;74.582;2023-02-14T16:54:02;20.27;;;11.27;;
35677;SDS011;21791;42.828;74.582;2023-02-14T16:56:37;17.17;;;9.40;;
35677;SDS011;21791;42.828;74.582;2023-02-14T16:59:12;10.32;;;6.55;;
35677;SDS011;21791;42.828;74.582;2023-02-14T17:01:39;8.98;;;5.50;;
35677;SDS011;21791;42.828;74.582;2023-02-14T17:04:06;9.38;;;4.97;;
35677;SDS011;21791;42.828;74.582;2023-02-14T17:06:33;7.97;;;4.18;;
35677;SDS011;21791;42.828;74.582;2023-02-14T17:09:03;9.38;;;4.88;;
35677;SDS011;21791;42.828;74.582;2023-02-14T17:11:32;17.02;;;8.63;;
35677;SDS011;21791;42.828;74.582;2023-02-14T17:14:02;16.08;;;9.07;;
35677;SDS011;21791;42.828;74.582;2023-02-14T17:16:30;15.10;;;8.73;;
35677;SDS011;21791;42.828;74.582;2023-02-14T17:18:57;13.25;;;7.95;;
35677;SDS011;21791;42.828;74.582;2023-02-14T17:21:25;12.20;;;7.03;;
35677;SDS011;21791;42.828;74.582;2023-02-14T17:23:52;15.32;;;7.30;;
35677;SDS011;21791;42.828;74.582;2023-02-14T17:26:18;10.68;;;6.03;;
35677;SDS011;21791;42.828;74.582;2023-02-14T17:28:45;9.55;;;5.05;;
35677;SDS011;21791;42.828;74.582;2023-02-14T17:31:12;9.65;;;5.47;;
35677;SDS011;21791;42.828;74.582;2023-02-14T17:33:39;8.90;;;4.68;;
35677;SDS011;21791;42.828;74.582;2023-02-14T17:36:09;8.23;;;5.40;;
35677;SDS011;21791;42.828;74.582;2023-02-14T17:38:38;9.27;;;5.60;;
35677;SDS011;21791;42.828;74.582;2023-02-14T17:43:47;15.38;;;7.75;;